Time;durP1;ratioP1;P1;durP2;ratioP2;P2;SDS_P1;SDS_P2;PMS_P1;PMS_P2;Temp;Humidity;BMP_temperature;BMP_pressure;BME280_temperature;BME280_humidity;BME280_pressure;Samples;Min_cycle;Max_cycle;Signal;HPM_P1;HPM_P2
2023/01/09 00:00:52;;;;;;;91.72;28.87;;;;;;;-13.87;100.00;102856.72;1685860;84;21020;-84
2023/01/09 00:03:19;;;;;;;94.70;29.20;;;;;;;-13.90;100.00;102852.92;1682919;85;21036;-85
2023/01/09 00:05:45;;;;;;;82.70;27.55;;;;;;;-13.92;100.00;102845.17;1682831;85;21133;-85
2023/01/09 00:08:11;;;;;;;84.03;26.15;;;;;;;-13.92;100.00;102840.00;1685592;83;21133;-85
2023/01/09 00:10:37;;;;;;;78.00;25.15;;;;;;;-13.95;100.00;102833.61;1685603;84;21138;-85
2023/01/09 00:13:04;;;;;;;76.57;25.50;;;;;;;-13.97;100.00;102841.45;1683827;84;21043;-85
2023/01/09 00:15:30;;;;;;;82.78;27.13;;;;;;;-13.97;100.00;102840.57;1682984;85;21162;-85
2023/01/09 00:17:56;;;;;;;73.25;24.98;;;;;;;-13.96;100.00;102837.11;1655283;84;21141;-84
2023/01/09 00:20:24;;;;;;;79.53;25.10;;;;;;;-13.96;100.00;102837.11;1681050;84;21032;-85
2023/01/09 00:22:51;;;;;;;76.42;24.18;;;;;;;-13.99;100.00;102838.50;1673746;85;21100;-85
2023/01/09 00:25:17;;;;;;;70.62;24.50;;;;;;;-14.00;100.00;102837.66;1629571;87;21546;-85
2023/01/09 00:27:43;;;;;;;72.42;23.18;;;;;;;-13.99;100.00;102834.16;1605211;87;21092;-86
2023/01/09 00:30:11;;;;;;;64.30;22.37;;;;;;;-13.99;100.00;102830.73;1601914;88;21535;-85
2023/01/09 00:32:37;;;;;;;71.28;22.82;;;;;;;-13.97;100.00;102828.49;1611338;87;21124;-84
2023/01/09 00:35:04;;;;;;;70.17;23.38;;;;;;;-13.97;100.00;102824.61;1608735;88;21040;-85
2023/01/09 00:37:30;;;;;;;62.55;21.90;;;;;;;-13.96;100.00;102825.00;1624050;85;21001;-85
2023/01/09 00:39:56;;;;;;;66.28;21.70;;;;;;;-13.93;100.00;102821.47;1674022;85;21087;-86
2023/01/09 00:42:26;;;;;;;70.75;22.30;;;;;;;-13.94;100.00;102817.16;1679943;85;21076;-88
2023/01/09 00:44:58;;;;;;;65.83;21.55;;;;;;;-13.93;100.00;102808.52;1679746;85;21039;-85
2023/01/09 00:47:32;;;;;;;75.12;21.97;;;;;;;-13.90;100.00;102806.29;1633262;87;21043;-82
2023/01/09 00:50:03;;;;;;;68.20;21.17;;;;;;;-13.92;100.00;102805.02;1546639;91;21380;-85
2023/01/09 00:52:32;;;;;;;66.35;22.77;;;;;;;-13.91;100.00;102804.57;1547034;91;21105;-85
2023/01/09 00:54:59;;;;;;;64.15;21.62;;;;;;;-13.90;100.00;102804.54;1546893;91;21353;-84
2023/01/09 00:57:25;;;;;;;70.92;22.02;;;;;;;-13.93;100.00;102802.49;1546988;91;21157;-85
2023/01/09 00:59:52;;;;;;;64.17;22.07;;;;;;;-13.94;100.00;102799.48;1546854;91;21567;-82
2023/01/09 01:02:18;;;;;;;59.18;20.08;;;;;;;-13.94;100.00;102797.73;1546927;91;21015;-84
2023/01/09 01:07:38;;;;;;;60.08;19.48;;;;;;;-13.93;100.00;102796.02;1546891;91;21093;-84
2023/01/09 01:10:15;;;;;;;60.75;20.30;;;;;;;-13.93;100.00;102797.31;1546784;91;21047;-89
2023/01/09 01:12:43;;;;;;;66.72;21.17;;;;;;;-13.94;100.00;102796.44;1547160;91;21133;-85
2023/01/09 01:15:10;;;;;;;54.13;18.98;;;;;;;-13.96;100.00;102795.20;1546995;91;21098;-84
2023/01/09 01:17:39;;;;;;;61.50;20.30;;;;;;;-13.94;100.00;102791.71;1552601;90;21093;-85
2023/01/09 01:20:09;;;;;;;57.90;19.45;;;;;;;-13.98;100.00;102796.14;1547120;91;21152;-82
2023/01/09 01:22:35;;;;;;;57.70;20.40;;;;;;;-13.99;100.00;102790.13;1546921;91;21054;-83
2023/01/09 01:25:04;;;;;;;52.05;18.75;;;;;;;-13.93;100.00;102786.95;1546927;91;21114;-85
2023/01/09 01:27:30;;;;;;;46.37;16.62;;;;;;;-13.89;100.00;102784.66;1566007;91;21057;-85
2023/01/09 01:29:56;;;;;;;46.45;17.48;;;;;;;-13.77;100.00;102782.52;1577197;91;21037;-84
2023/01/09 01:32:23;;;;;;;52.80;18.70;;;;;;;-13.76;100.00;102776.91;1577169;90;21313;-84
2023/01/09 01:34:50;;;;;;;53.08;18.10;;;;;;;-13.80;100.00;102776.14;1577005;91;21118;-84
2023/01/09 01:37:16;;;;;;;60.35;19.70;;;;;;;-13.81;100.00;102779.64;1577128;91;21049;-85
2023/01/09 01:39:42;;;;;;;54.33;18.70;;;;;;;-13.83;100.00;102774.09;1577260;91;21080;-85
2023/01/09 01:42:14;;;;;;;52.75;18.67;;;;;;;-13.90;100.00;102777.33;1577100;91;21066;-85
2023/01/09 01:45:09;;;;;;;51.27;18.60;;;;;;;-13.97;100.00;102780.99;1600043;87;21114;-85
2023/01/09 01:47:47;;;;;;;52.85;18.77;;;;;;;-14.01;100.00;102780.70;1685876;83;21031;-86
2023/01/09 01:50:51;;;;;;;57.88;18.45;;;;;;;-14.04;100.00;102776.91;1710310;83;21099;-89
2023/01/09 01:53:22;;;;;;;56.08;18.75;;;;;;;-14.07;100.00;102780.44;1667261;85;21020;-84
2023/01/09 01:56:16;;;;;;;52.80;18.07;;;;;;;-14.11;100.00;102776.70;1647720;86;21681;-84
2023/01/09 01:58:49;;;;;;;56.13;19.57;;;;;;;-14.12;100.00;102769.81;1650985;86;21909;-87
2023/01/09 02:01:17;;;;;;;57.33;19.52;;;;;;;-14.14;100.00;102773.76;1601167;89;21079;-85
2023/01/09 02:03:44;;;;;;;56.23;18.65;;;;;;;-14.14;100.00;102773.76;1601905;89;21087;-89
2023/01/09 02:06:13;;;;;;;58.08;19.23;;;;;;;-14.11;100.00;102767.64;1601829;89;21043;-86
2023/01/09 02:08:42;;;;;;;62.55;19.65;;;;;;;-14.09;100.00;102763.23;1601980;89;21032;-84
2023/01/09 02:11:11;;;;;;;52.38;18.45;;;;;;;-14.10;100.00;102762.85;1601852;89;21544;-84
2023/01/09 02:13:39;;;;;;;63.13;20.17;;;;;;;-14.09;100.00;102758.06;1601355;86;21228;-84
2023/01/09 02:16:39;;;;;;;57.38;19.50;;;;;;;-14.09;100.00;102749.00;1601723;89;21174;-85
2023/01/09 02:19:38;;;;;;;73.70;20.62;;;;;;;-14.07;100.00;102743.33;1603354;88;21592;-83
2023/01/09 02:22:27;;;;;;;57.55;20.10;;;;;;;-14.10;100.00;102738.25;1603043;88;21067;-82
2023/01/09 02:25:36;;;;;;;57.80;20.30;;;;;;;-14.09;100.00;102738.64;1601993;89;22016;-89
2023/01/09 02:28:42;;;;;;;58.30;19.62;;;;;;;-14.10;100.00;102737.80;1602258;89;21121;-85
2023/01/09 02:31:17;;;;;;;53.90;18.30;;;;;;;-14.09;100.00;102734.75;1601558;88;21123;-84
2023/01/09 02:34:08;;;;;;;54.13;18.55;;;;;;;-14.08;100.00;102728.25;1602275;89;21016;-89
2023/01/09 02:36:42;;;;;;;57.55;17.12;;;;;;;-14.06;100.00;102736.80;1599768;89;21149;-84
2023/01/09 02:39:22;;;;;;;57.90;18.00;;;;;;;-14.06;100.00;102717.37;1633928;86;21165;-84
2023/01/09 02:42:06;;;;;;;49.23;17.45;;;;;;;-14.01;100.00;102706.88;1627961;87;21061;-85
2023/01/09 02:44:37;;;;;;;52.17;15.80;;;;;;;-14.00;100.00;102709.44;1624678;88;21061;-87
2023/01/09 02:47:16;;;;;;;57.45;16.90;;;;;;;-14.00;100.00;102706.84;1627013;88;21039;-89
2023/01/09 02:49:53;;;;;;;43.25;15.95;;;;;;;-14.02;100.00;102699.56;1602549;88;21053;-85
2023/01/09 02:52:46;;;;;;;47.33;16.75;;;;;;;-13.98;100.00;102702.44;1597882;86;21172;-85
2023/01/09 02:55:26;;;;;;;50.38;17.40;;;;;;;-13.99;100.00;102704.64;1553868;91;21126;-85
2023/01/09 02:58:00;;;;;;;55.75;18.40;;;;;;;-14.01;100.00;102696.52;1501048;93;21118;-86
2023/01/09 03:01:14;;;;;;;49.33;17.90;;;;;;;-13.99;100.00;102697.33;1517095;92;21036;-85
2023/01/09 03:04:09;;;;;;;48.42;15.93;;;;;;;-14.02;100.00;102700.02;1517169;93;21123;-86
2023/01/09 03:06:44;;;;;;;45.30;15.93;;;;;;;-14.05;100.00;102693.64;1510078;92;21258;-84
2023/01/09 03:09:23;;;;;;;50.20;16.75;;;;;;;-14.07;100.00;102696.71;1500084;93;21095;-85
2023/01/09 03:12:06;;;;;;;45.60;15.28;;;;;;;-14.10;100.00;102694.22;1460467;98;21168;-86
2023/01/09 03:14:34;;;;;;;47.05;15.50;;;;;;;-14.11;100.00;102704.19;1457294;97;21168;-85
2023/01/09 03:17:05;;;;;;;46.33;15.90;;;;;;;-14.13;100.00;102698.20;1452701;97;21180;-84
2023/01/09 03:19:34;;;;;;;51.70;16.55;;;;;;;-14.15;100.00;102703.42;1449885;97;21190;-84
2023/01/09 03:22:01;;;;;;;45.85;15.38;;;;;;;-14.15;100.00;102704.71;1455006;97;21171;-85
2023/01/09 03:24:27;;;;;;;48.80;15.48;;;;;;;-14.17;100.00;102705.23;1450342;97;21094;-84
2023/01/09 03:26:54;;;;;;;52.15;16.07;;;;;;;-14.17;100.00;102698.76;1447298;97;21110;-91
2023/01/09 03:29:21;;;;;;;47.27;16.45;;;;;;;-14.19;100.00;102703.12;1450633;97;21122;-84
2023/01/09 03:31:47;;;;;;;48.87;15.83;;;;;;;-14.20;100.00;102702.28;1469210;95;21199;-85
2023/01/09 03:34:13;;;;;;;47.33;16.15;;;;;;;-14.20;100.00;102700.98;1484752;95;21165;-84
2023/01/09 03:36:39;;;;;;;48.52;16.32;;;;;;;-14.22;100.00;102703.22;1489598;95;21167;-85
2023/01/09 03:39:06;;;;;;;46.28;15.65;;;;;;;-14.23;100.00;102698.50;1501822;95;21142;-85
2023/01/09 03:41:32;;;;;;;49.75;15.15;;;;;;;-14.26;100.00;102697.75;1499368;95;21128;-85
2023/01/09 03:43:58;;;;;;;40.98;14.28;;;;;;;-14.26;100.00;102699.89;1502716;95;21210;-84
2023/01/09 03:46:24;;;;;;;46.70;14.98;;;;;;;-14.26;100.00;102703.77;1515881;91;21250;-83
2023/01/09 03:48:51;;;;;;;43.40;15.00;;;;;;;-14.25;100.00;102697.69;1579429;86;21294;-86
2023/01/09 03:51:17;;;;;;;33.45;13.05;;;;;;;-14.23;100.00;102694.61;1628968;83;21599;-85
2023/01/09 03:53:43;;;;;;;46.92;15.08;;;;;;;-14.24;100.00;102703.25;1766119;80;21054;-90
2023/01/09 03:56:09;;;;;;;36.10;13.25;;;;;;;-14.22;100.00;102704.06;1753522;80;21100;-84
2023/01/09 03:58:36;;;;;;;41.98;13.25;;;;;;;-14.20;100.00;102705.33;1768675;80;21035;-85
2023/01/09 04:01:04;;;;;;;40.55;13.70;;;;;;;-14.16;100.00;102707.36;1766584;80;21547;-85
2023/01/09 04:03:30;;;;;;;38.13;12.78;;;;;;;-14.15;100.00;102707.75;1763106;80;21522;-86
2023/01/09 04:05:56;;;;;;;44.98;13.78;;;;;;;-14.14;100.00;102710.77;1749027;80;22184;-84
2023/01/09 04:08:23;;;;;;;40.83;12.88;;;;;;;-14.14;100.00;102708.17;1751263;80;21793;-84
2023/01/09 04:10:50;;;;;;;35.10;13.10;;;;;;;-14.14;100.00;102709.02;1773807;80;21004;-85
2023/01/09 04:13:17;;;;;;;45.52;13.45;;;;;;;-14.13;100.00;102715.03;1773495;80;21480;-84
2023/01/09 04:19:24;;;;;;;48.45;14.50;;;;;;;-14.12;100.00;102702.48;1764068;80;21572;-83
2023/01/09 04:21:51;;;;;;;42.78;12.82;;;;;;;-14.13;100.00;102712.45;1762859;80;21039;-85
2023/01/09 04:24:17;;;;;;;47.25;15.25;;;;;;;-14.16;100.00;102711.25;1773548;80;21141;-85
2023/01/09 04:26:43;;;;;;;44.55;13.85;;;;;;;-14.16;100.00;102725.49;1755521;80;21475;-88
2023/01/09 04:29:09;;;;;;;41.35;13.30;;;;;;;-14.16;100.00;102725.04;1759346;80;21023;-85
2023/01/09 04:31:36;;;;;;;35.15;12.65;;;;;;;-14.15;100.00;102727.17;1752968;80;21039;-84
2023/01/09 04:34:02;;;;;;;45.58;14.73;;;;;;;-14.13;100.00;102725.39;1752791;80;21089;-86
2023/01/09 04:36:28;;;;;;;39.38;13.72;;;;;;;-14.15;100.00;102723.30;1774029;80;21098;-83
2023/01/09 04:38:55;;;;;;;40.92;13.50;;;;;;;-14.16;100.00;102723.74;1758261;80;21602;-85
2023/01/09 04:44:05;;;;;;;46.00;13.68;;;;;;;-14.16;100.00;102731.97;1768082;80;20969;-82
2023/01/09 04:46:32;;;;;;;42.30;14.20;;;;;;;-14.15;100.00;102734.49;1765709;80;21218;-85
2023/01/09 04:48:58;;;;;;;41.73;13.98;;;;;;;-14.12;100.00;102734.85;1760968;80;21032;-85
2023/01/09 04:51:24;;;;;;;46.53;13.58;;;;;;;-14.12;100.00;102733.10;1760428;80;21061;-83
2023/01/09 04:53:50;;;;;;;43.28;14.40;;;;;;;-14.12;100.00;102733.55;1770715;80;21121;-84
2023/01/09 04:56:17;;;;;;;38.85;13.03;;;;;;;-14.13;100.00;102727.98;1771836;80;21086;-85
2023/01/09 04:58:43;;;;;;;41.95;14.53;;;;;;;-14.14;100.00;102724.55;1764027;80;21109;-85
2023/01/09 05:01:09;;;;;;;42.38;12.88;;;;;;;-14.16;100.00;102722.45;1769031;80;21529;-84
2023/01/09 05:03:35;;;;;;;48.13;14.43;;;;;;;-14.14;100.00;102721.13;1765249;80;21557;-82
2023/01/09 05:06:07;;;;;;;39.15;13.65;;;;;;;-14.15;100.00;102718.11;1757689;80;21030;-84
2023/01/09 05:08:33;;;;;;;44.05;14.58;;;;;;;-14.17;100.00;102712.13;1728580;82;21052;-86
2023/01/09 05:10:59;;;;;;;45.60;14.33;;;;;;;-14.21;100.00;102708.34;1724924;82;21187;-84
2023/01/09 07:36:11;;;;;;;21.85;9.15;;;;;;;2.72;69.49;102692.67;1784489;79;26084;-86
2023/01/09 07:38:37;;;;;;;16.35;6.85;;;;;;;3.23;65.87;102694.63;1708569;83;21073;-86
2023/01/09 07:41:03;;;;;;;16.27;7.37;;;;;;;4.21;62.72;102701.61;1684002;83;21071;-85
2023/01/09 07:43:29;;;;;;;17.77;8.08;;;;;;;4.63;57.36;102692.09;1683905;83;21006;-91
2023/01/09 07:49:36;;;;;;;13.30;6.97;;;;;;;4.33;52.38;102698.94;1697446;83;21119;-85
2023/01/09 07:52:03;;;;;;;17.02;7.72;;;;;;;4.69;51.98;102695.41;1687742;83;21113;-88
2023/01/09 07:54:30;;;;;;;22.85;9.00;;;;;;;4.86;49.18;102690.06;1679758;84;21104;-87
2023/01/09 07:56:56;;;;;;;17.62;7.42;;;;;;;4.88;48.88;102694.70;1681137;83;21533;-88
2023/01/09 07:59:23;;;;;;;16.20;7.53;;;;;;;4.70;47.18;102690.39;1684859;84;21159;-86
2023/01/09 08:01:50;;;;;;;16.40;7.40;;;;;;;4.58;48.75;102698.93;1678325;84;21440;-86
2023/01/09 08:08:19;;;;;;;;;;;;;;;;;;;;;
2023/01/09 08:24:43;;;;;;;17.60;7.75;;;;;;;8.46;46.40;102692.13;1594759;89;21084;-86
2023/01/09 08:27:09;;;;;;;17.23;8.15;;;;;;;9.00;44.24;102693.67;1605308;87;21106;-85
2023/01/09 08:29:35;;;;;;;12.78;6.62;;;;;;;9.75;43.70;102682.52;1578215;89;21000;-86
2023/01/09 08:35:30;;;;;;;13.50;5.60;;;;;;;7.81;37.88;102679.17;1594005;88;21183;-87
2023/01/09 08:37:56;;;;;;;17.37;6.35;;;;;;;4.12;37.78;102687.89;1600121;89;21207;-84
2023/01/09 08:40:22;;;;;;;17.98;6.53;;;;;;;2.15;39.57;102687.41;1593936;89;21114;-85
2023/01/09 08:48:19;;;;;;;19.05;6.35;;;;;;;-1.42;43.19;102684.67;1663658;85;21082;-86
2023/01/09 08:50:45;;;;;;;17.37;6.30;;;;;;;-2.37;44.24;102684.56;1654505;85;21135;-83
2023/01/09 08:53:11;;;;;;;16.35;5.87;;;;;;;-3.39;46.24;102685.49;1655614;85;21109;-83
2023/01/09 08:55:38;;;;;;;21.20;7.75;;;;;;;-3.86;47.32;102685.94;1660474;85;21077;-85
2023/01/09 08:58:04;;;;;;;13.15;5.40;;;;;;;-4.14;48.23;102681.39;1661299;85;20995;-84
2023/01/09 09:00:30;;;;;;;24.30;8.75;;;;;;;-4.31;48.25;102681.77;1679434;82;21619;-83
2023/01/09 09:02:59;;;;;;;28.32;8.83;;;;;;;-4.54;47.98;102679.46;1743921;82;21543;-83
2023/01/09 09:05:28;;;;;;;21.17;7.78;;;;;;;-4.80;48.54;102678.67;1744580;81;21078;-85
2023/01/09 09:07:55;;;;;;;14.53;5.85;;;;;;;-5.02;48.92;102679.34;1745696;81;21519;-84
2023/01/09 09:10:25;;;;;;;19.65;6.20;;;;;;;-5.14;49.27;102670.51;1721570;81;22138;-84
2023/01/09 09:19:38;;;;;;;14.83;6.30;;;;;;;-5.27;52.45;102661.77;1696500;83;20982;-84
2023/01/09 09:22:04;;;;;;;19.80;5.47;;;;;;;-5.30;52.97;102655.41;1692065;83;20998;-83
2023/01/09 09:24:31;;;;;;;16.27;6.05;;;;;;;-5.29;53.33;102650.55;1690481;83;21184;-84
2023/01/09 09:26:57;;;;;;;15.45;6.08;;;;;;;-5.40;52.93;102652.58;1691371;83;21072;-84
2023/01/09 09:29:24;;;;;;;16.52;5.70;;;;;;;-5.49;53.95;102645.33;1696369;83;21968;-83
2023/01/09 09:31:50;;;;;;;14.20;5.90;;;;;;;-5.44;54.84;102638.43;1685444;83;21098;-81
2023/01/09 09:34:16;;;;;;;16.75;5.42;;;;;;;-5.30;55.23;102643.59;1661821;83;21109;-83
2023/01/09 09:36:42;;;;;;;15.45;5.40;;;;;;;-5.25;55.81;102638.86;1682574;83;21603;-82
2023/01/09 09:39:09;;;;;;;17.60;5.42;;;;;;;-5.22;55.69;102633.40;1693370;83;21016;-84
2023/01/09 09:44:56;;;;;;;15.85;5.90;;;;;;;-5.17;57.41;102628.67;1686102;83;20972;-85
2023/01/09 09:47:53;;;;;;;18.60;5.47;;;;;;;-5.05;58.08;102619.93;1692835;83;21248;-82
2023/01/09 09:50:36;;;;;;;13.85;4.72;;;;;;;-4.96;58.03;102621.08;1693715;83;21514;-85
2023/01/09 09:53:16;;;;;;;15.68;5.45;;;;;;;-4.92;58.42;102614.64;1689108;83;21106;-84
2023/01/09 09:55:44;;;;;;;10.43;4.80;;;;;;;-4.93;58.92;102610.81;1688983;83;21123;-83
2023/01/09 09:58:27;;;;;;;15.30;5.28;;;;;;;-4.88;60.19;102616.56;1664750;83;21213;-84
2023/01/09 10:00:55;;;;;;;13.75;5.05;;;;;;;-4.81;59.87;102602.05;1635677;86;21277;-83
2023/01/09 10:03:39;;;;;;;17.50;5.22;;;;;;;-4.76;60.74;102592.50;1620294;85;21087;-81
2023/01/09 10:06:22;;;;;;;14.25;5.40;;;;;;;-4.63;61.40;102591.52;1595960;89;21103;-84
2023/01/09 10:12:16;;;;;;;10.63;4.22;;;;;;;-4.45;61.84;102584.56;1598241;89;21571;-83
2023/01/09 10:18:49;;;;;;;27.90;10.38;;;;;;;-4.22;62.73;102575.81;1594164;88;21064;-84
2023/01/09 10:21:36;;;;;;;27.45;12.75;;;;;;;-4.00;62.61;102566.30;1593296;89;21170;-85
2023/01/09 10:24:28;;;;;;;19.67;6.05;;;;;;;-3.85;63.12;102559.04;1578498;90;21220;-84
2023/01/09 10:26:56;;;;;;;14.68;5.22;;;;;;;-3.70;63.24;102563.16;1572863;90;21095;-84
2023/01/09 10:29:41;;;;;;;14.58;5.62;;;;;;;-3.73;62.86;102556.33;1573097;90;21072;-86
2023/01/09 10:32:41;;;;;;;16.02;6.08;;;;;;;-3.69;62.96;102557.77;1570493;89;21052;-88
2023/01/09 10:35:49;;;;;;;11.83;4.12;;;;;;;-3.68;63.22;102556.83;1571377;90;21143;-84
2023/01/09 10:42:01;;;;;;;11.05;3.77;;;;;;;-3.52;63.66;102548.56;1652426;84;21025;-85
2023/01/09 10:44:37;;;;;;;12.40;4.58;;;;;;;-3.53;62.87;102538.13;1690221;84;21006;-84
2023/01/09 10:47:24;;;;;;;11.63;4.42;;;;;;;-3.53;63.50;102533.72;1695613;82;21029;-84
2023/01/09 10:49:51;;;;;;;11.50;4.28;;;;;;;-3.50;63.50;102533.48;1632513;86;21154;-82
2023/01/09 10:52:22;;;;;;;14.95;4.37;;;;;;;-3.45;63.89;102534.42;1617372;86;21637;-84
2023/01/09 10:55:03;;;;;;;10.65;4.03;;;;;;;-3.50;64.05;102529.98;1619324;87;21511;-84
2023/01/09 10:57:45;;;;;;;13.10;4.87;;;;;;;-3.51;64.22;102521.24;1613291;86;21150;-91
2023/01/09 11:00:22;;;;;;;17.67;4.58;;;;;;;-3.57;64.56;102527.00;1614292;86;21163;-84
2023/01/09 11:02:53;;;;;;;12.10;4.25;;;;;;;-3.55;65.13;102522.45;1659183;85;21038;-84
2023/01/09 11:05:25;;;;;;;11.03;4.17;;;;;;;-3.49;65.49;102514.55;1660629;85;21218;-83
2023/01/09 11:08:05;;;;;;;13.90;4.78;;;;;;;-3.47;65.22;102519.20;1656467;85;21121;-83
2023/01/09 11:10:47;;;;;;;13.95;3.90;;;;;;;-3.46;65.55;102529.64;1662116;85;21069;-83
2023/01/09 11:13:25;;;;;;;33.95;10.32;;;;;;;-3.43;65.27;102528.56;1616788;87;21132;-83
2023/01/09 11:16:17;;;;;;;13.75;4.12;;;;;;;-3.48;65.80;102518.85;1575194;89;21858;-82
2023/01/09 11:18:59;;;;;;;9.48;4.10;;;;;;;-3.46;66.29;102516.46;1594717;88;21174;-83
2023/01/09 11:21:34;;;;;;;14.83;4.70;;;;;;;-3.39;66.36;102518.13;1595273;88;21445;-83
2023/01/09 11:27:23;;;;;;;10.68;3.87;;;;;;;-3.37;67.66;102528.56;1557443;88;21635;-83
2023/01/09 11:30:26;;;;;;;10.15;3.80;;;;;;;-3.34;67.83;102535.75;1561066;90;21171;-85
2023/01/09 11:32:55;;;;;;;12.00;3.30;;;;;;;-3.38;67.91;102547.95;1562495;90;21614;-83
2023/01/09 11:35:31;;;;;;;14.47;4.75;;;;;;;-3.39;68.41;102536.58;1561653;90;21059;-84
2023/01/09 11:38:09;;;;;;;11.55;4.45;;;;;;;-3.37;69.47;102541.26;1488576;95;21028;-83
2023/01/09 11:40:46;;;;;;;10.72;3.70;;;;;;;-3.32;70.35;102543.06;1516432;92;21136;-83
2023/01/09 11:43:31;;;;;;;15.95;5.67;;;;;;;-3.29;69.78;102533.59;1496292;94;21099;-83
2023/01/09 11:46:10;;;;;;;12.03;4.35;;;;;;;-3.31;70.28;102533.35;1500271;94;21336;-84
2023/01/09 11:48:42;;;;;;;15.32;4.65;;;;;;;-3.27;70.34;102515.84;1483354;93;21180;-84
2023/01/09 11:51:21;;;;;;;9.13;3.73;;;;;;;-3.25;70.88;102504.70;1445055;95;21096;-84
2023/01/09 11:54:14;;;;;;;9.65;3.98;;;;;;;-3.22;72.81;102515.00;1454094;94;21239;-84
2023/01/09 11:56:41;;;;;;;8.25;3.45;;;;;;;-3.21;73.19;102511.42;1439555;98;21119;-82
2023/01/09 11:59:13;;;;;;;10.70;3.83;;;;;;;-3.26;74.51;102508.80;1440909;98;21417;-85
2023/01/09 12:02:06;;;;;;;13.80;3.35;;;;;;;-3.24;74.04;102516.91;1445547;98;21255;-84
2023/01/09 12:04:54;;;;;;;20.27;4.50;;;;;;;-3.24;74.61;102523.98;1464001;95;21084;-83
2023/01/09 12:07:38;;;;;;;15.95;5.25;;;;;;;-3.17;74.89;102520.41;1460858;96;21112;-82
2023/01/09 12:10:46;;;;;;;13.72;5.10;;;;;;;-3.22;76.19;102521.59;1473135;95;21167;-83
2023/01/09 12:13:34;;;;;;;11.48;3.77;;;;;;;-3.24;77.39;102517.40;1447266;97;21247;-83
2023/01/09 12:16:33;;;;;;;8.73;3.33;;;;;;;-3.21;77.98;102531.66;1446660;98;21041;-82
2023/01/09 12:19:33;;;;;;;19.00;6.28;;;;;;;-3.23;77.54;102528.32;1446755;97;21174;-87
2023/01/09 12:26:14;;;;;;;13.58;3.30;;;;;;;-3.20;79.41;102532.87;1446655;97;21143;-91
2023/01/09 12:29:05;;;;;;;12.28;4.22;;;;;;;-3.21;80.19;102529.02;1437494;99;21341;-86
2023/01/09 12:32:03;;;;;;;8.68;3.33;;;;;;;-3.23;80.78;102541.02;1457074;95;21092;-84
2023/01/09 12:34:50;;;;;;;14.78;4.20;;;;;;;-3.20;80.24;102533.34;1489120;94;21649;-87
2023/01/09 12:37:22;;;;;;;15.72;3.90;;;;;;;-3.27;81.39;102525.55;1500718;93;21129;-84
2023/01/09 12:40:15;;;;;;;13.68;3.65;;;;;;;-3.22;81.59;102533.94;1505914;93;21141;-83
2023/01/09 12:43:19;;;;;;;10.45;3.15;;;;;;;-3.27;81.06;102542.20;1494945;94;21585;-84
2023/01/09 12:46:13;;;;;;;8.23;3.60;;;;;;;-3.29;80.82;102532.28;1509575;93;21078;-84
2023/01/09 12:49:00;;;;;;;17.12;5.28;;;;;;;-3.30;82.66;102519.20;1581025;88;21207;-88
2023/01/09 12:51:43;;;;;;;13.48;4.20;;;;;;;-3.22;81.73;102531.30;1605911;88;21064;-83
2023/01/09 12:54:27;;;;;;;13.20;4.28;;;;;;;-3.26;80.54;102527.25;1518861;92;21068;-88
2023/01/09 12:57:16;;;;;;;8.30;3.02;;;;;;;-3.23;80.65;102527.00;1511586;92;21605;-84
2023/01/09 12:59:47;;;;;;;8.25;3.20;;;;;;;-3.23;80.93;102530.47;1515676;92;21148;-84
2023/01/09 13:02:18;;;;;;;11.18;3.00;;;;;;;-3.21;79.72;102547.47;1558603;90;21192;-83
2023/01/09 13:04:55;;;;;;;11.03;4.47;;;;;;;-3.24;79.61;102538.00;1551973;90;21131;-84
2023/01/09 13:07:38;;;;;;;11.05;4.05;;;;;;;-3.27;80.29;102538.73;1561674;89;21622;-82
2023/01/09 13:10:10;;;;;;;9.40;3.08;;;;;;;-3.28;80.00;102528.67;1559602;89;21184;-85
2023/01/09 13:12:39;;;;;;;8.60;3.27;;;;;;;-3.32;79.82;102514.06;1561140;89;21214;-84
2023/01/09 13:15:32;;;;;;;10.28;3.22;;;;;;;-3.34;79.27;102505.44;1567173;89;21113;-85
2023/01/09 13:18:11;;;;;;;8.35;3.17;;;;;;;-3.43;79.35;102500.41;1555694;89;21096;-84
2023/01/09 13:20:51;;;;;;;8.10;2.77;;;;;;;-3.53;80.57;102506.51;1569724;89;21235;-83
2023/01/09 13:26:56;;;;;;;9.50;3.58;;;;;;;-3.56;79.70;102498.84;1568290;89;21123;-83
2023/01/09 16:35:06;;;;;;;12.33;4.40;;;;;;;-7.87;100.00;102582.23;1791824;78;25620;-85
2023/01/09 16:37:33;;;;;;;13.15;4.33;;;;;;;-7.90;100.00;102587.64;1752808;80;21158;-86
2023/01/09 16:40:19;;;;;;;11.38;4.40;;;;;;;-7.84;100.00;102586.80;1749975;80;21129;-84
2023/01/09 16:43:00;;;;;;;13.48;4.55;;;;;;;-7.77;100.00;102590.73;1760293;80;21186;-87
2023/01/09 16:45:40;;;;;;;16.40;5.03;;;;;;;-7.72;100.00;102586.55;1753400;80;21027;-86
2023/01/09 16:48:19;;;;;;;15.10;5.08;;;;;;;-7.70;100.00;102579.93;1747328;81;21010;-88
2023/01/09 16:50:46;;;;;;;13.45;4.15;;;;;;;-7.68;100.00;102585.42;1758117;80;21004;-86
2023/01/09 16:53:22;;;;;;;16.10;4.80;;;;;;;-7.64;100.00;102588.25;1753882;80;21775;-85
2023/01/09 16:55:51;;;;;;;17.87;4.35;;;;;;;-7.63;100.00;102593.84;1687032;83;21102;-83
2023/01/09 16:58:23;;;;;;;11.55;3.90;;;;;;;-7.62;100.00;102592.06;1684294;84;21010;-83
2023/01/09 17:00:50;;;;;;;16.42;4.67;;;;;;;-7.62;100.00;102594.68;1693584;83;21102;-84
2023/01/09 17:03:18;;;;;;;12.90;4.62;;;;;;;-7.59;100.00;102594.50;1696479;83;21060;-86
2023/01/09 17:05:51;;;;;;;17.42;4.08;;;;;;;-7.60;100.00;102595.44;1687215;83;21116;-86
2023/01/09 17:08:21;;;;;;;16.60;4.10;;;;;;;-7.59;100.00;102596.67;1681123;83;21118;-86
2023/01/09 17:10:52;;;;;;;12.68;4.20;;;;;;;-7.58;100.00;102604.89;1685299;84;21223;-91
2023/01/09 17:13:18;;;;;;;12.00;4.47;;;;;;;-7.61;100.00;102607.70;1680230;83;21593;-90
2023/01/09 17:15:45;;;;;;;15.88;4.55;;;;;;;-7.61;100.00;102610.31;1692716;83;21084;-86
2023/01/09 17:18:21;;;;;;;11.78;4.53;;;;;;;-7.62;100.00;102604.68;1691625;83;21143;-86
2023/01/09 17:20:52;;;;;;;9.68;4.10;;;;;;;-7.60;100.00;102608.53;1700970;83;21062;-90
2023/01/09 17:28:35;;;;;;;15.48;4.70;;;;;;;-7.60;100.00;102602.83;1561622;90;21634;-86
2023/01/09 17:31:08;;;;;;;13.00;4.37;;;;;;;-7.64;100.00;102596.09;1553762;90;21348;-90
2023/01/09 17:33:36;;;;;;;19.23;4.70;;;;;;;-7.67;100.00;102588.91;1580017;89;21122;-86
2023/01/09 17:36:05;;;;;;;13.00;5.05;;;;;;;-7.69;100.00;102585.05;1565373;89;21659;-89
2023/01/09 17:38:32;;;;;;;11.95;4.65;;;;;;;-7.72;100.00;102581.31;1587850;89;21234;-86
2023/01/09 17:40:58;;;;;;;18.12;5.60;;;;;;;-7.75;100.00;102583.27;1581895;89;21102;-92
2023/01/09 17:43:24;;;;;;;17.27;6.37;;;;;;;-7.80;100.00;102569.98;1561249;90;22156;-86
2023/01/09 17:45:51;;;;;;;14.80;5.65;;;;;;;-7.82;100.00;102579.72;1579987;89;21563;-87
2023/01/09 17:48:21;;;;;;;19.20;5.87;;;;;;;-7.88;100.00;102586.63;1561503;90;21075;-87
2023/01/09 17:50:48;;;;;;;17.37;6.00;;;;;;;-7.90;100.00;102588.48;1528714;92;21101;-87
2023/01/09 17:53:18;;;;;;;17.12;5.45;;;;;;;-7.94;100.00;102574.34;1597021;87;21086;-88
2023/01/09 17:55:44;;;;;;;13.08;4.72;;;;;;;-7.97;100.00;102573.22;1599553;88;21157;-87
2023/01/09 17:58:24;;;;;;;16.90;5.12;;;;;;;-8.04;100.00;102572.27;1596678;88;21075;-88
2023/01/09 18:00:51;;;;;;;16.93;5.40;;;;;;;-8.05;100.00;102562.75;1592018;88;21074;-88
2023/01/09 18:03:19;;;;;;;12.65;4.42;;;;;;;-8.14;100.00;102567.22;1591592;89;21089;-88
2023/01/09 18:05:47;;;;;;;14.00;4.97;;;;;;;-8.19;100.00;102566.63;1594122;88;21575;-88
2023/01/09 18:08:13;;;;;;;12.82;4.50;;;;;;;-8.19;100.00;102569.72;1595422;87;21227;-88
2023/01/09 18:10:41;;;;;;;9.68;3.90;;;;;;;-8.28;100.00;102570.62;1616048;87;21112;-86
2023/01/09 18:13:08;;;;;;;12.40;4.15;;;;;;;-8.35;100.00;102567.99;1583688;88;22308;-86
2023/01/09 18:15:34;;;;;;;8.98;3.77;;;;;;;-8.35;100.00;102559.28;1583365;88;21176;-88
2023/01/09 18:18:01;;;;;;;9.43;3.67;;;;;;;-8.39;100.00;102563.05;1619318;87;21173;-87
2023/01/09 18:20:27;;;;;;;15.88;3.65;;;;;;;-8.46;100.00;102562.09;1636579;86;21210;-88